Time;durP1;ratioP1;P1;durP2;ratioP2;P2;SDS_P1;SDS_P2;PMS_P1;PMS_P2;Temp;Humidity;BMP_temperature;BMP_pressure;BME280_temperature;BME280_humidity;BME280_pressure;Samples;Min_cycle;Max_cycle;Signal;HPM_P1;HPM_P2
2023/01/10 00:02:52;;;;;;;12.83;7.40;;;4.30;99.90;;;;;;8328518;28;20229;-68
2023/01/10 00:06:53;;;;;;;12.37;6.70;;;4.20;99.90;;;;;;8332804;28;20278;-68
2023/01/10 00:10:53;;;;;;;9.27;5.97;;;4.00;99.90;;;;;;8318011;28;20211;-68
2023/01/10 00:14:54;;;;;;;13.30;7.10;;;3.90;99.90;;;;;;8331432;28;20217;-68
2023/01/10 00:18:55;;;;;;;10.63;7.00;;;3.90;99.90;;;;;;8332948;28;20196;-68
2023/01/10 00:22:56;;;;;;;12.53;6.87;;;3.70;99.90;;;;;;8325308;28;20263;-65
2023/01/10 00:26:58;;;;;;;12.00;7.50;;;3.60;99.90;;;;;;8323701;28;20178;-68
2023/01/10 00:31:05;;;;;;;11.27;7.40;;;3.50;99.90;;;;;;8326269;28;20200;-68
2023/01/10 00:35:06;;;;;;;12.73;8.47;;;3.50;99.90;;;;;;8333448;28;20241;-70
2023/01/10 00:39:09;;;;;;;12.00;8.07;;;3.40;99.90;;;;;;8327984;28;20201;-68
2023/01/10 00:47:30;;;;;;;13.10;7.97;;;3.40;99.90;;;;;;8327944;28;20235;-67
2023/01/10 00:51:30;;;;;;;10.67;7.27;;;3.50;99.90;;;;;;8324837;28;20192;-68
2023/01/10 00:55:33;;;;;;;12.37;7.57;;;3.50;99.90;;;;;;8333053;28;20234;-68
2023/01/10 00:59:34;;;;;;;13.03;6.77;;;3.50;99.90;;;;;;8334708;28;20193;-68
2023/01/10 01:03:35;;;;;;;9.80;6.40;;;3.50;99.90;;;;;;8325711;28;20263;-68
2023/01/10 01:07:36;;;;;;;11.70;6.37;;;3.50;99.90;;;;;;8326055;28;20201;-69
2023/01/10 01:11:36;;;;;;;9.67;5.73;;;3.50;99.90;;;;;;8328960;28;20186;-67
2023/01/10 01:15:37;;;;;;;9.47;5.70;;;3.50;99.90;;;;;;8326198;28;20192;-68
2023/01/10 01:19:38;;;;;;;9.03;6.17;;;3.50;99.90;;;;;;8324560;28;20245;-67
2023/01/10 01:23:39;;;;;;;10.03;5.70;;;3.50;99.90;;;;;;8333692;28;20190;-67
2023/01/10 01:27:40;;;;;;;9.70;5.97;;;3.40;99.90;;;;;;8329894;28;20190;-66
2023/01/10 01:31:41;;;;;;;8.63;5.43;;;3.30;99.90;;;;;;8330583;28;20186;-66
2023/01/10 01:35:46;;;;;;;8.83;5.90;;;3.30;99.90;;;;;;8326522;28;20220;-65
2023/01/10 01:39:47;;;;;;;7.57;5.37;;;3.30;99.90;;;;;;8322219;28;20218;-66
2023/01/10 01:44:16;;;;;;;10.83;5.53;;;3.30;99.90;;;;;;8324529;28;20352;-66
2023/01/10 01:48:28;;;;;;;9.27;5.63;;;3.30;99.90;;;;;;8329841;28;20171;-66
2023/01/10 01:52:33;;;;;;;9.50;5.77;;;3.20;99.90;;;;;;8321642;28;20193;-66
2023/01/10 01:56:41;;;;;;;8.10;4.10;;;3.30;99.90;;;;;;8325517;28;20301;-66
2023/01/10 02:00:42;;;;;;;8.17;4.87;;;3.30;99.90;;;;;;8320760;28;20298;-71
2023/01/10 02:04:58;;;;;;;7.50;4.87;;;3.30;99.90;;;;;;8327190;28;20188;-66
2023/01/10 02:09:14;;;;;;;7.93;4.57;;;3.40;99.90;;;;;;8325925;28;20192;-66
2023/01/10 02:13:18;;;;;;;7.93;3.40;;;3.40;99.90;;;;;;8329978;28;20596;-66
2023/01/10 02:17:19;;;;;;;6.83;4.13;;;3.50;99.90;;;;;;8323200;28;20291;-66
2023/01/10 02:22:00;;;;;;;5.03;3.43;;;3.50;99.90;;;;;;8324169;28;20214;-66
2023/01/10 02:26:26;;;;;;;5.17;3.47;;;3.60;99.90;;;;;;8320720;28;20262;-66
2023/01/10 02:30:45;;;;;;;4.23;3.13;;;3.70;99.90;;;;;;8330013;28;20218;-68
2023/01/10 02:34:51;;;;;;;3.43;2.60;;;3.80;99.90;;;;;;8327722;28;20220;-66
2023/01/10 02:39:06;;;;;;;4.20;2.67;;;3.80;99.90;;;;;;8330357;28;20566;-66
2023/01/10 02:43:19;;;;;;;4.17;2.70;;;3.90;99.90;;;;;;8324672;28;20223;-66
2023/01/10 02:47:20;;;;;;;4.90;2.73;;;3.90;99.90;;;;;;8327727;28;20195;-66
2023/01/10 02:51:26;;;;;;;4.27;2.77;;;4.00;99.90;;;;;;8331404;28;20200;-66
2023/01/10 02:55:39;;;;;;;4.90;2.33;;;4.10;99.90;;;;;;8328819;28;20276;-66
2023/01/10 02:59:54;;;;;;;3.60;2.33;;;4.20;99.90;;;;;;8327634;28;20294;-66
2023/01/10 03:04:00;;;;;;;3.50;2.17;;;4.30;99.90;;;;;;8336424;28;20187;-66
2023/01/10 03:08:22;;;;;;;3.57;2.37;;;4.30;99.90;;;;;;8334560;28;20317;-66
2023/01/10 03:12:46;;;;;;;3.17;2.20;;;4.40;99.90;;;;;;8329175;28;20194;-66
2023/01/10 03:16:55;;;;;;;4.10;2.00;;;4.40;99.90;;;;;;8329472;28;20194;-66
2023/01/10 03:20:57;;;;;;;4.83;2.20;;;4.40;99.90;;;;;;8327676;28;20213;-65
2023/01/10 03:25:02;;;;;;;3.53;2.00;;;4.40;99.90;;;;;;8332137;28;20190;-66
2023/01/10 03:29:10;;;;;;;3.37;2.20;;;4.40;99.90;;;;;;8328697;28;20185;-68
2023/01/10 03:33:12;;;;;;;2.87;2.17;;;4.40;99.90;;;;;;8329191;28;20201;-66
2023/01/10 03:37:27;;;;;;;2.83;2.07;;;4.40;99.90;;;;;;8333623;28;20200;-66
2023/01/10 03:41:37;;;;;;;4.23;2.30;;;4.40;99.90;;;;;;8336373;28;20263;-68
2023/01/10 03:46:16;;;;;;;6.43;2.57;;;4.40;99.90;;;;;;8331416;28;20276;-66
2023/01/10 03:50:24;;;;;;;3.50;2.40;;;4.50;99.90;;;;;;8340073;28;20408;-66
2023/01/10 03:54:24;;;;;;;5.27;2.23;;;4.60;99.90;;;;;;8325899;28;20194;-66
2023/01/10 03:58:28;;;;;;;3.77;2.40;;;4.70;99.90;;;;;;8331413;28;20279;-66
2023/01/10 04:02:30;;;;;;;3.77;2.37;;;4.70;99.90;;;;;;8326547;28;20265;-66
2023/01/10 04:06:31;;;;;;;2.37;2.17;;;4.70;99.90;;;;;;8329106;28;20186;-69
2023/01/10 04:10:32;;;;;;;4.83;2.30;;;4.70;99.90;;;;;;8328224;28;20194;-66
2023/01/10 04:14:32;;;;;;;3.70;2.27;;;4.70;99.90;;;;;;8329289;28;20534;-66
2023/01/10 04:18:33;;;;;;;3.83;2.20;;;4.70;99.90;;;;;;8329162;28;20235;-67
2023/01/10 04:22:34;;;;;;;2.50;1.90;;;4.70;99.90;;;;;;8334416;28;20210;-68
2023/01/10 04:26:35;;;;;;;4.27;2.30;;;4.70;99.90;;;;;;8325474;28;20332;-66
2023/01/10 04:30:36;;;;;;;4.90;2.30;;;4.70;99.90;;;;;;8331386;28;20198;-69
2023/01/10 04:34:36;;;;;;;2.63;2.20;;;4.70;99.90;;;;;;8328206;28;20300;-67
2023/01/10 04:38:37;;;;;;;3.13;2.13;;;4.80;99.90;;;;;;8327683;28;20225;-67
2023/01/10 04:42:38;;;;;;;2.93;2.30;;;4.80;99.90;;;;;;8327038;28;20225;-66
2023/01/10 04:46:38;;;;;;;3.33;1.90;;;4.80;99.90;;;;;;8327179;28;20201;-67
2023/01/10 04:50:39;;;;;;;4.03;2.23;;;4.80;99.90;;;;;;8329897;28;20202;-67
2023/01/10 04:54:40;;;;;;;4.70;2.20;;;4.80;99.90;;;;;;8325453;28;20198;-67
2023/01/10 04:58:41;;;;;;;3.73;2.40;;;4.80;99.90;;;;;;8327770;28;20285;-67
2023/01/10 05:02:42;;;;;;;4.00;2.20;;;4.80;99.90;;;;;;8330420;28;20217;-68
2023/01/10 05:06:43;;;;;;;4.73;2.40;;;4.80;99.90;;;;;;8328933;28;20197;-67
2023/01/10 05:10:44;;;;;;;4.20;2.00;;;4.80;99.90;;;;;;8325000;28;20194;-67
2023/01/10 05:14:45;;;;;;;4.30;2.50;;;4.80;99.90;;;;;;8324019;28;20305;-67
2023/01/10 05:18:46;;;;;;;5.40;2.53;;;4.90;99.90;;;;;;8326132;28;20194;-67
2023/01/10 05:22:48;;;;;;;4.83;2.70;;;4.90;99.90;;;;;;8321276;28;20248;-67
2023/01/10 05:26:48;;;;;;;3.43;2.40;;;4.90;99.90;;;;;;8327873;28;20194;-66
2023/01/10 05:30:49;;;;;;;2.50;2.30;;;4.90;99.90;;;;;;8326458;28;20390;-66
2023/01/10 05:34:50;;;;;;;2.87;2.57;;;4.90;99.90;;;;;;8327755;28;20222;-67
2023/01/10 05:38:51;;;;;;;2.63;2.13;;;4.90;99.90;;;;;;8325125;28;20233;-67
2023/01/10 05:42:51;;;;;;;12.43;2.90;;;4.90;99.90;;;;;;8323957;28;20293;-68
2023/01/10 05:46:52;;;;;;;3.83;2.97;;;4.90;99.90;;;;;;8326606;28;20213;-67
2023/01/10 05:50:53;;;;;;;5.60;2.63;;;4.90;99.90;;;;;;8333936;28;20190;-68
2023/01/10 05:54:54;;;;;;;3.50;2.73;;;5.00;99.90;;;;;;8329917;28;20212;-67
2023/01/10 05:58:54;;;;;;;4.67;3.00;;;5.00;99.90;;;;;;8330840;28;20237;-68
2023/01/10 06:02:56;;;;;;;5.60;3.10;;;4.90;99.90;;;;;;8328273;28;20236;-67
2023/01/10 06:06:57;;;;;;;5.00;3.00;;;4.90;99.90;;;;;;8343018;28;20227;-70
2023/01/10 06:10:57;;;;;;;4.90;3.00;;;5.00;99.90;;;;;;8337740;28;20231;-67
2023/01/10 06:14:58;;;;;;;5.27;2.90;;;5.00;99.90;;;;;;8326694;28;20194;-67
2023/01/10 06:18:59;;;;;;;5.67;2.70;;;4.90;99.90;;;;;;8323895;28;20205;-68
2023/01/10 06:23:03;;;;;;;3.80;3.07;;;4.90;99.90;;;;;;8336661;28;20208;-67
2023/01/10 06:27:04;;;;;;;6.90;3.30;;;4.80;99.90;;;;;;8329197;28;20354;-67
2023/01/10 06:31:06;;;;;;;6.30;3.17;;;4.80;99.90;;;;;;8333134;28;20198;-68
2023/01/10 06:35:08;;;;;;;5.83;3.20;;;4.70;99.90;;;;;;8324564;28;20209;-66
2023/01/10 06:39:08;;;;;;;6.83;2.97;;;4.60;99.90;;;;;;8329675;28;20228;-67
2023/01/10 06:43:09;;;;;;;7.17;3.13;;;4.60;99.90;;;;;;8331207;28;20218;-66
2023/01/10 06:47:10;;;;;;;4.50;2.97;;;4.60;99.90;;;;;;8334576;28;20256;-68
2023/01/10 06:51:15;;;;;;;6.37;3.47;;;4.50;99.90;;;;;;8325129;28;20192;-67
2023/01/10 06:55:16;;;;;;;4.80;3.00;;;4.40;99.90;;;;;;8325565;28;20204;-71
2023/01/10 06:59:17;;;;;;;6.90;3.63;;;4.40;99.90;;;;;;8319507;28;20296;-70
2023/01/10 07:03:18;;;;;;;5.70;3.47;;;4.30;99.90;;;;;;8300923;28;20224;-69
2023/01/10 07:07:19;;;;;;;6.40;3.57;;;4.30;99.90;;;;;;8296828;28;20197;-70
2023/01/10 07:11:20;;;;;;;3.93;3.23;;;4.20;99.90;;;;;;8293362;28;20194;-71
2023/01/10 07:15:20;;;;;;;7.63;4.27;;;4.30;99.90;;;;;;8303414;28;20213;-71
2023/01/10 07:19:21;;;;;;;7.53;3.57;;;4.30;99.90;;;;;;8305180;28;20198;-71
2023/01/10 07:23:22;;;;;;;5.50;3.50;;;4.40;99.90;;;;;;8300719;28;20591;-71
2023/01/10 07:27:23;;;;;;;6.97;3.37;;;4.40;99.90;;;;;;8299387;28;20230;-71
2023/01/10 07:31:24;;;;;;;6.73;3.43;;;4.60;99.90;;;;;;8292093;28;20223;-70
2023/01/10 07:35:25;;;;;;;6.17;3.37;;;4.60;99.90;;;;;;8295362;28;20218;-71
2023/01/10 07:39:26;;;;;;;7.27;3.43;;;4.70;99.90;;;;;;8298489;28;20216;-70
2023/01/10 07:43:28;;;;;;;6.13;3.20;;;4.70;99.90;;;;;;8296844;28;20232;-71
2023/01/10 07:47:29;;;;;;;6.33;3.17;;;4.70;99.90;;;;;;8300223;28;20187;-71
2023/01/10 07:51:30;;;;;;;4.77;3.03;;;4.80;99.90;;;;;;8302247;28;20393;-71
2023/01/10 07:55:33;;;;;;;7.60;3.37;;;4.90;99.90;;;;;;8298215;28;20217;-70
2023/01/10 07:59:34;;;;;;;7.27;3.50;;;5.00;99.90;;;;;;8301237;28;20285;-71
2023/01/10 08:03:35;;;;;;;7.03;3.80;;;5.00;99.90;;;;;;8307615;28;20437;-71
2023/01/10 08:07:37;;;;;;;5.43;3.20;;;5.10;99.90;;;;;;8305690;28;20205;-70
2023/01/10 08:11:37;;;;;;;6.67;3.70;;;5.20;99.90;;;;;;8303102;28;20202;-71
2023/01/10 08:15:38;;;;;;;9.40;3.37;;;5.20;99.90;;;;;;8300856;28;20214;-72
2023/01/10 08:19:39;;;;;;;5.73;3.43;;;5.30;99.90;;;;;;8295967;28;20221;-71
2023/01/10 08:23:40;;;;;;;6.23;3.17;;;5.30;99.90;;;;;;8306266;28;20214;-71
2023/01/10 08:27:41;;;;;;;6.97;3.80;;;5.40;99.90;;;;;;8301631;28;20201;-71
2023/01/10 08:31:41;;;;;;;5.97;3.20;;;5.40;99.90;;;;;;8296202;28;20190;-73
2023/01/10 08:35:43;;;;;;;8.30;3.83;;;5.50;99.90;;;;;;8299026;28;20210;-71
2023/01/10 08:39:43;;;;;;;9.20;3.63;;;5.50;99.90;;;;;;8298452;28;20629;-72
2023/01/10 08:43:44;;;;;;;8.07;3.37;;;5.50;99.90;;;;;;8302870;28;20482;-71
2023/01/10 08:47:45;;;;;;;7.57;3.57;;;5.60;99.90;;;;;;8298001;28;20326;-71
2023/01/10 08:51:46;;;;;;;6.47;3.33;;;5.60;99.90;;;;;;8305233;28;20194;-70
2023/01/10 08:55:48;;;;;;;8.57;3.70;;;5.60;99.90;;;;;;8297255;28;20217;-72
2023/01/10 08:59:49;;;;;;;6.87;3.83;;;5.60;99.90;;;;;;8298016;28;20245;-72
2023/01/10 09:03:50;;;;;;;5.57;3.13;;;5.60;99.90;;;;;;8337489;28;20215;-71
2023/01/10 09:07:51;;;;;;;5.87;3.43;;;5.70;99.90;;;;;;8331521;28;20186;-72
2023/01/10 09:11:52;;;;;;;6.00;3.47;;;5.70;99.90;;;;;;8338820;28;20193;-71
2023/01/10 09:15:53;;;;;;;7.53;3.90;;;5.80;99.90;;;;;;8332462;28;20220;-70
2023/01/10 09:19:55;;;;;;;8.50;3.40;;;5.80;99.90;;;;;;8328894;28;20193;-71
2023/01/10 09:23:55;;;;;;;8.60;3.83;;;5.90;99.90;;;;;;8331387;28;20190;-71
2023/01/10 09:28:01;;;;;;;3.87;3.00;;;6.00;99.90;;;;;;8333408;28;20221;-71
2023/01/10 09:32:02;;;;;;;6.77;3.70;;;6.10;99.90;;;;;;8340983;28;20221;-72
2023/01/10 09:36:03;;;;;;;6.80;3.30;;;6.10;99.90;;;;;;8330507;28;20218;-71
2023/01/10 09:40:05;;;;;;;9.07;3.63;;;6.10;99.90;;;;;;8331269;28;20303;-71
2023/01/10 09:44:23;;;;;;;8.20;3.97;;;6.10;99.90;;;;;;8326000;28;20324;-72
2023/01/10 09:48:55;;;;;;;9.17;4.17;;;6.00;99.90;;;;;;8335799;28;20225;-70
2023/01/10 09:53:04;;;;;;;8.27;3.87;;;6.00;99.90;;;;;;8326854;28;20195;-71
2023/01/10 09:57:05;;;;;;;8.43;3.70;;;6.00;99.90;;;;;;8342099;28;20239;-72
2023/01/10 10:01:11;;;;;;;6.47;3.60;;;6.00;99.90;;;;;;8333939;28;20209;-69
2023/01/10 10:05:24;;;;;;;8.63;3.90;;;6.10;99.90;;;;;;8327576;28;20185;-71
2023/01/10 10:09:30;;;;;;;9.47;4.07;;;6.10;99.90;;;;;;8323595;28;20190;-70
2023/01/10 10:13:35;;;;;;;7.67;4.17;;;6.20;99.90;;;;;;8326107;28;20360;-69
2023/01/10 10:17:42;;;;;;;9.27;4.00;;;6.30;99.90;;;;;;8322643;28;20183;-67
2023/01/10 10:22:23;;;;;;;9.77;4.63;;;6.30;99.90;;;;;;8322289;28;20313;-70
2023/01/10 10:26:55;;;;;;;9.13;3.90;;;6.30;99.90;;;;;;8323817;28;20198;-69
2023/01/10 10:31:13;;;;;;;9.30;3.87;;;6.50;99.90;;;;;;8331064;28;20190;-70
2023/01/10 10:35:33;;;;;;;7.97;4.30;;;6.50;99.90;;;;;;8332975;28;20209;-70
2023/01/10 10:39:47;;;;;;;8.27;4.83;;;6.40;99.90;;;;;;8323146;28;20214;-71
2023/01/10 10:43:49;;;;;;;8.23;4.43;;;6.30;99.90;;;;;;8317665;28;20209;-72
2023/01/10 10:47:59;;;;;;;6.10;4.63;;;6.30;99.90;;;;;;8329979;28;20183;-70
2023/01/10 10:52:02;;;;;;;9.73;4.83;;;6.30;99.90;;;;;;8328255;28;20191;-72
2023/01/10 10:56:06;;;;;;;8.17;4.27;;;6.30;99.90;;;;;;8333142;28;20195;-72
2023/01/10 11:00:12;;;;;;;7.87;4.20;;;6.30;99.90;;;;;;8326962;28;20186;-70
2023/01/10 11:04:20;;;;;;;9.03;4.40;;;6.30;99.90;;;;;;8329243;28;20183;-71
2023/01/10 11:08:22;;;;;;;10.23;4.30;;;6.40;99.90;;;;;;8332784;28;20189;-72
2023/01/10 11:12:30;;;;;;;8.37;4.00;;;6.30;99.90;;;;;;8331263;28;20186;-74
2023/01/10 11:16:40;;;;;;;6.57;4.57;;;6.40;99.90;;;;;;8325042;28;20187;-72
2023/01/10 11:20:56;;;;;;;5.87;4.20;;;6.40;99.90;;;;;;8327529;28;20676;-72
2023/01/10 11:24:59;;;;;;;6.77;3.57;;;6.40;99.90;;;;;;8336156;28;20190;-74
2023/01/10 11:29:06;;;;;;;8.37;4.27;;;6.50;99.90;;;;;;8332811;28;20212;-73
2023/01/10 11:33:17;;;;;;;6.00;3.73;;;6.60;99.90;;;;;;8327538;28;20194;-72
2023/01/10 11:37:24;;;;;;;6.73;3.70;;;6.70;99.90;;;;;;8347288;28;20606;-73
2023/01/10 11:41:33;;;;;;;5.23;3.60;;;6.80;99.90;;;;;;8322371;28;20224;-73
2023/01/10 11:45:35;;;;;;;6.43;3.93;;;6.80;99.90;;;;;;8330990;28;20272;-76
2023/01/10 11:49:39;;;;;;;4.23;3.13;;;6.90;99.90;;;;;;8336824;28;20243;-73
2023/01/10 11:53:44;;;;;;;7.37;3.20;;;6.90;99.90;;;;;;8335056;28;20186;-74
2023/01/10 11:57:52;;;;;;;5.37;3.30;;;6.90;99.90;;;;;;8329656;28;20193;-72
2023/01/10 12:02:22;;;;;;;5.83;3.10;;;7.00;99.90;;;;;;8327406;28;20206;-72
2023/01/10 12:06:24;;;;;;;7.60;4.53;;;6.90;99.90;;;;;;8332400;28;20206;-73
2023/01/10 12:10:27;;;;;;;7.73;4.03;;;6.70;99.90;;;;;;8329709;28;20194;-72
2023/01/10 12:14:28;;;;;;;5.00;3.37;;;6.70;99.90;;;;;;8326870;28;20193;-72
2023/01/10 12:18:29;;;;;;;10.13;4.57;;;6.60;99.90;;;;;;8325638;28;20579;-73
2023/01/10 12:22:51;;;;;;;10.43;3.53;;;6.70;99.90;;;;;;8328701;28;20203;-75
2023/01/10 12:26:53;;;;;;;5.60;3.33;;;6.70;99.90;;;;;;8321616;28;20197;-73
2023/01/10 12:30:57;;;;;;;6.00;3.07;;;6.70;99.90;;;;;;8328312;28;20217;-75
2023/01/10 12:35:06;;;;;;;5.20;3.03;;;6.80;99.90;;;;;;8336881;28;20206;-72
2023/01/10 12:39:16;;;;;;;7.37;3.10;;;6.70;99.90;;;;;;8323257;28;20285;-71
2023/01/10 12:48:11;;;;;;;6.60;2.70;;;6.90;99.90;;;;;;8329601;28;20190;-74
2023/01/10 12:52:23;;;;;;;6.37;2.63;;;6.90;99.90;;;;;;8334139;28;20197;-76
2023/01/10 12:56:24;;;;;;;3.77;2.30;;;6.90;99.90;;;;;;8326194;28;20196;-72
2023/01/10 13:00:39;;;;;;;6.00;2.50;;;6.90;99.90;;;;;;8331629;28;20300;-72
2023/01/10 13:04:47;;;;;;;3.60;2.27;;;6.80;99.90;;;;;;8328973;28;20268;-75
2023/01/10 13:08:49;;;;;;;3.20;2.40;;;6.80;99.90;;;;;;8334004;28;20182;-71
2023/01/10 13:12:59;;;;;;;3.20;2.10;;;6.90;99.90;;;;;;8331196;28;20209;-75
2023/01/10 13:17:44;;;;;;;3.93;2.03;;;6.90;99.90;;;;;;8326101;28;20449;-74
2023/01/10 13:21:46;;;;;;;4.30;2.50;;;6.90;99.90;;;;;;8266431;28;20572;-73
2023/01/10 13:25:55;;;;;;;4.57;2.40;;;6.80;99.90;;;;;;8296109;28;20189;-75
2023/01/10 13:29:56;;;;;;;4.80;2.20;;;6.80;99.90;;;;;;8324516;28;20186;-77
2023/01/10 13:34:17;;;;;;;4.10;2.07;;;6.80;99.90;;;;;;8332610;28;20217;-75
2023/01/10 13:38:35;;;;;;;5.77;2.00;;;6.80;99.90;;;;;;8325955;28;20215;-73
2023/01/10 13:46:56;;;;;;;4.80;2.33;;;6.90;99.90;;;;;;8324354;28;20221;-74
2023/01/10 13:51:12;;;;;;;5.13;2.00;;;6.90;17.30;;;;;;8328564;28;20194;-71
2023/01/10 13:55:27;;;;;;;4.47;1.60;;;6.90;1.00;;;;;;8327416;28;20299;-76
2023/01/10 14:03:52;;;;;;;3.67;2.00;;;6.90;99.90;;;;;;8327007;28;20221;-75
2023/01/10 14:07:54;;;;;;;3.33;2.00;;;6.90;70.30;;;;;;8321891;28;20206;-74
2023/01/10 14:12:00;;;;;;;6.10;1.77;;;6.80;36.00;;;;;;8323623;28;20197;-73
2023/01/10 14:16:01;;;;;;;2.60;1.63;;;6.70;99.90;;;;;;8329883;28;20197;-73
2023/01/10 14:20:02;;;;;;;3.90;1.80;;;6.70;99.90;;;;;;8326620;28;20217;-72
2023/01/10 14:24:03;;;;;;;2.83;1.80;;;6.60;99.90;;;;;;8328401;28;20185;-71
2023/01/10 14:28:15;;;;;;;4.50;1.83;;;6.60;99.90;;;;;;8314152;28;20188;-74
2023/01/10 14:32:40;;;;;;;3.07;1.43;;;6.60;99.90;;;;;;8292890;28;20254;-73
2023/01/10 14:36:58;;;;;;;2.47;1.50;;;6.50;99.90;;;;;;8301074;28;20237;-75
2023/01/10 14:41:32;;;;;;;4.50;1.40;;;6.40;99.90;;;;;;8325370;28;20214;-73
2023/01/10 14:45:56;;;;;;;4.30;1.30;;;6.30;1.00;;;;;;8342391;28;20257;-71
2023/01/10 14:55:11;;;;;;;3.93;1.50;;;6.10;1.00;;;;;;8320325;28;20224;-74
2023/01/10 14:59:32;;;;;;;4.13;1.90;;;6.00;99.90;;;;;;8324866;28;20201;-73
2023/01/10 15:03:33;;;;;;;3.17;1.70;;;5.90;1.00;;;;;;8311204;28;20269;-72
2023/01/10 15:07:36;;;;;;;2.40;1.50;;;5.80;99.90;;;;;;8298349;28;20225;-72
2023/01/10 15:11:37;;;;;;;2.27;1.40;;;5.80;1.00;;;;;;8332176;28;20229;-69
2023/01/10 15:15:39;;;;;;;2.23;1.40;;;5.70;99.90;;;;;;8327634;28;20182;-70
2023/01/10 15:19:40;;;;;;;2.50;1.43;;;5.70;1.00;;;;;;8327253;28;20179;-69
2023/01/10 15:23:44;;;;;;;6.57;1.67;;;5.70;99.90;;;;;;8327846;28;20218;-70
2023/01/10 15:27:48;;;;;;;3.60;1.53;;;5.70;99.90;;;;;;8341311;28;20289;-71
2023/01/10 15:31:51;;;;;;;4.87;1.90;;;5.80;99.90;;;;;;8336510;28;20181;-71
2023/01/10 15:35:52;;;;;;;3.73;2.57;;;5.70;1.00;;;;;;8336536;28;20210;-70
2023/01/10 15:39:54;;;;;;;5.00;2.30;;;5.60;99.90;;;;;;8338673;28;20202;-68
2023/01/10 15:44:22;;;;;;;10.13;3.57;;;5.50;99.90;;;;;;8326313;28;20461;-67
2023/01/10 15:48:26;;;;;;;10.47;4.27;;;5.30;46.80;;;;;;8320307;28;20194;-68
2023/01/10 15:52:26;;;;;;;6.53;2.70;;;5.20;1.00;;;;;;8327405;28;20197;-67
2023/01/10 15:56:29;;;;;;;5.80;3.37;;;5.20;99.90;;;;;;8331098;28;20194;-67
2023/01/10 16:00:30;;;;;;;3.70;2.10;;;5.10;99.90;;;;;;8333732;28;20275;-70
2023/01/10 16:04:35;;;;;;;2.93;1.87;;;4.90;1.00;;;;;;8327880;28;20192;-67
2023/01/10 16:08:37;;;;;;;2.27;1.70;;;4.90;99.90;;;;;;8323383;28;20194;-67
2023/01/10 16:17:00;;;;;;;2.20;1.77;;;4.70;1.00;;;;;;8330390;28;20269;-67
2023/01/10 16:21:04;;;;;;;4.07;1.83;;;4.70;99.90;;;;;;8334239;28;20241;-67
2023/01/10 16:25:06;;;;;;;2.37;1.80;;;4.80;99.90;;;;;;8333777;28;20186;-67
2023/01/10 16:29:08;;;;;;;5.47;2.30;;;4.90;1.00;;;;;;8328509;28;20186;-67
2023/01/10 16:33:11;;;;;;;3.13;2.10;;;4.90;50.00;;;;;;8334571;28;20194;-68
2023/01/10 16:37:12;;;;;;;4.23;2.07;;;5.00;99.90;;;;;;8326977;28;20221;-67
2023/01/10 16:45:33;;;;;;;6.10;2.97;;;5.00;99.90;;;;;;8331962;28;20205;-68
2023/01/10 16:49:34;;;;;;;5.10;2.60;;;5.00;99.90;;;;;;8332267;28;20182;-68
2023/01/10 16:53:35;;;;;;;3.57;2.90;;;5.00;99.90;;;;;;8331472;28;20497;-67
2023/01/10 16:57:36;;;;;;;6.80;3.23;;;4.90;99.90;;;;;;8326775;28;20186;-67
2023/01/10 17:01:45;;;;;;;5.87;3.47;;;4.90;99.90;;;;;;8328249;28;20271;-67
2023/01/10 17:05:46;;;;;;;16.17;10.33;;;4.90;99.90;;;;;;8326316;28;20531;-67
2023/01/10 17:09:46;;;;;;;34.57;16.30;;;4.70;99.90;;;;;;8329265;28;20213;-67
2023/01/10 17:13:48;;;;;;;16.77;8.40;;;4.60;99.90;;;;;;8329623;28;20229;-67
2023/01/10 17:17:48;;;;;;;14.37;7.33;;;4.60;99.90;;;;;;8323279;28;20190;-71
2023/01/10 17:21:49;;;;;;;10.70;6.07;;;4.70;99.90;;;;;;8322822;28;20240;-68
2023/01/10 17:25:58;;;;;;;7.60;5.00;;;4.70;99.90;;;;;;8325287;28;20190;-68
2023/01/10 17:29:59;;;;;;;8.20;4.70;;;4.70;99.90;;;;;;8334835;28;20197;-67
2023/01/10 17:34:00;;;;;;;7.93;4.40;;;4.70;99.90;;;;;;8326906;28;20213;-68
2023/01/10 17:38:01;;;;;;;7.93;4.47;;;4.80;99.90;;;;;;8323431;28;20197;-68
2023/01/10 17:42:05;;;;;;;8.90;4.47;;;4.80;99.90;;;;;;8327547;28;20221;-67
2023/01/10 17:46:06;;;;;;;7.47;4.17;;;4.90;99.90;;;;;;8325098;28;20269;-67
2023/01/10 17:50:08;;;;;;;10.40;4.47;;;5.00;99.90;;;;;;8326760;28;20394;-67
2023/01/10 17:54:09;;;;;;;6.60;4.30;;;5.00;99.90;;;;;;8324238;28;20193;-69
2023/01/10 17:58:10;;;;;;;9.87;4.20;;;5.00;99.90;;;;;;8320536;28;20225;-68
2023/01/10 18:02:16;;;;;;;7.67;3.70;;;5.00;99.90;;;;;;8321919;28;20242;-68
2023/01/10 18:06:19;;;;;;;7.47;3.60;;;5.00;99.90;;;;;;8319686;28;20280;-67
2023/01/10 18:10:19;;;;;;;7.60;3.57;;;5.10;99.90;;;;;;8318391;28;20183;-68
2023/01/10 18:14:35;;;;;;;5.50;3.60;;;5.10;99.90;;;;;;8328205;28;20178;-67
2023/01/10 18:18:36;;;;;;;8.70;4.10;;;5.10;99.90;;;;;;8323640;28;20186;-68
2023/01/10 18:26:57;;;;;;;10.20;4.67;;;5.10;99.90;;;;;;8327866;28;20224;-68
2023/01/10 18:31:05;;;;;;;9.77;5.37;;;5.10;99.90;;;;;;8329299;28;20205;-68
2023/01/10 18:35:06;;;;;;;9.80;5.90;;;5.10;99.90;;;;;;8325917;28;20210;-68
2023/01/10 18:39:07;;;;;;;15.33;7.20;;;5.00;99.90;;;;;;8333166;28;20280;-68
2023/01/10 18:43:13;;;;;;;13.23;7.40;;;5.00;99.90;;;;;;8334723;28;20519;-69
2023/01/10 18:47:13;;;;;;;14.03;7.03;;;5.00;99.90;;;;;;8330501;28;20186;-66
2023/01/10 18:51:17;;;;;;;11.93;7.13;;;5.00;99.90;;;;;;8338297;28;20197;-67
2023/01/10 18:55:20;;;;;;;12.27;6.80;;;5.00;99.90;;;;;;8332021;28;20201;-67
2023/01/10 18:59:21;;;;;;;11.37;6.83;;;5.00;99.90;;;;;;8325626;28;20186;-68
2023/01/10 19:03:23;;;;;;;13.20;7.97;;;5.00;99.90;;;;;;8324487;28;20218;-67
2023/01/10 19:07:24;;;;;;;13.50;8.00;;;5.00;1.00;;;;;;8326977;28;20239;-66
2023/01/10 19:11:25;;;;;;;16.03;9.03;;;5.00;1.00;;;;;;8321629;28;20198;-67
2023/01/10 19:15:26;;;;;;;17.20;8.43;;;5.10;99.90;;;;;;8334118;28;20210;-72
2023/01/10 19:19:27;;;;;;;17.27;8.47;;;5.10;99.90;;;;;;8343265;28;20194;-72
2023/01/10 19:23:28;;;;;;;12.60;7.63;;;5.20;74.40;;;;;;8345631;28;20218;-72
2023/01/10 19:27:29;;;;;;;12.73;7.47;;;5.30;34.00;;;;;;8344761;28;20191;-72
2023/01/10 19:31:30;;;;;;;13.07;6.70;;;5.40;99.90;;;;;;8352192;28;20245;-72
2023/01/10 19:35:34;;;;;;;14.60;7.80;;;5.40;1.00;;;;;;8342452;28;20313;-69
2023/01/10 19:39:36;;;;;;;12.70;7.30;;;5.40;99.90;;;;;;8346629;28;20215;-71
2023/01/10 19:43:36;;;;;;;12.73;7.10;;;5.40;1.00;;;;;;8340919;28;20212;-72
2023/01/10 19:47:37;;;;;;;10.73;6.93;;;5.40;99.90;;;;;;8361173;28;20182;-70
2023/01/10 19:51:39;;;;;;;10.93;7.07;;;5.40;9.10;;;;;;8363673;28;20241;-71
2023/01/10 19:55:40;;;;;;;14.10;7.13;;;5.30;1.00;;;;;;8343659;28;20304;-72
2023/01/10 19:59:41;;;;;;;11.40;7.20;;;5.30;99.90;;;;;;8344577;28;20193;-72
2023/01/10 20:03:45;;;;;;;12.40;6.97;;;5.30;99.90;;;;;;8341654;28;20241;-71
2023/01/10 20:07:50;;;;;;;12.93;7.43;;;5.20;99.90;;;;;;8338270;28;20205;-70
2023/01/10 20:11:51;;;;;;;12.73;5.93;;;5.20;99.90;;;;;;8331797;28;20328;-70
2023/01/10 20:15:52;;;;;;;12.83;6.10;;;5.10;99.90;;;;;;8328832;28;20229;-71
2023/01/10 20:19:54;;;;;;;13.27;7.30;;;5.10;1.00;;;;;;8331551;28;20719;-71
2023/01/10 20:23:54;;;;;;;11.23;7.47;;;5.10;99.90;;;;;;8332292;28;20206;-71
2023/01/10 20:27:55;;;;;;;18.13;7.90;;;5.10;99.90;;;;;;8333351;28;20191;-70
2023/01/10 20:31:59;;;;;;;12.87;7.67;;;5.10;99.90;;;;;;8330976;28;20194;-71
2023/01/10 20:36:06;;;;;;;15.13;7.30;;;5.10;99.90;;;;;;8331128;28;20202;-73
2023/01/10 20:40:08;;;;;;;10.13;6.77;;;5.10;1.00;;;;;;8333853;28;20203;-72
2023/01/10 20:44:09;;;;;;;12.57;6.90;;;5.10;1.00;;;;;;8331893;28;20297;-71
2023/01/10 20:48:10;;;;;;;10.27;6.40;;;5.10;1.00;;;;;;8331774;28;20194;-72
2023/01/10 20:52:11;;;;;;;11.00;6.23;;;5.10;99.90;;;;;;8334381;28;20212;-71
2023/01/10 20:56:17;;;;;;;12.90;5.93;;;5.10;99.90;;;;;;8334558;28;20197;-72
2023/01/10 21:00:19;;;;;;;9.23;5.10;;;5.10;99.90;;;;;;8330483;28;20213;-69
2023/01/10 21:04:20;;;;;;;10.37;5.73;;;5.10;99.90;;;;;;8335448;28;20201;-72
2023/01/10 21:08:21;;;;;;;8.73;5.30;;;5.00;99.90;;;;;;8332637;28;20391;-71
2023/01/10 21:12:23;;;;;;;9.37;4.77;;;5.00;99.90;;;;;;8308777;28;20194;-71
2023/01/10 21:16:24;;;;;;;8.90;4.03;;;5.00;99.90;;;;;;8285601;28;20992;-68
2023/01/10 21:20:26;;;;;;;5.97;4.47;;;5.00;99.90;;;;;;8297303;28;20190;-72
2023/01/10 21:24:27;;;;;;;8.40;4.77;;;5.00;99.90;;;;;;8300999;28;20182;-73
2023/01/10 21:28:28;;;;;;;11.50;4.60;;;5.00;99.90;;;;;;8311934;28;20201;-73
2023/01/10 21:32:29;;;;;;;8.97;4.33;;;5.00;99.90;;;;;;8291583;28;20182;-70
2023/01/10 21:36:30;;;;;;;7.60;3.77;;;5.00;99.90;;;;;;8289598;28;20267;-70
2023/01/10 21:40:31;;;;;;;10.30;5.37;;;5.00;99.90;;;;;;8323497;28;20194;-72
2023/01/10 21:44:32;;;;;;;6.97;4.43;;;4.90;99.90;;;;;;8331818;28;20186;-72
2023/01/10 21:48:32;;;;;;;8.80;4.37;;;4.90;99.90;;;;;;8324334;28;20182;-71
2023/01/10 21:52:33;;;;;;;8.10;3.90;;;4.90;99.90;;;;;;8326997;28;20273;-72
2023/01/10 21:56:34;;;;;;;8.53;4.33;;;4.90;99.90;;;;;;8333002;28;20216;-71
2023/01/10 22:00:35;;;;;;;8.37;4.07;;;4.80;1.00;;;;;;8326212;28;20190;-70
2023/01/10 22:04:36;;;;;;;6.60;3.93;;;4.80;1.00;;;;;;8332933;28;20186;-72